createdAt,value
2022-07-26T00:01:14.968Z,101078.28
2022-07-26T00:03:41.383Z,101085.91
2022-07-26T00:06:07.833Z,101082.63
2022-07-26T00:08:34.295Z,101087.13
2022-07-26T00:11:00.693Z,101085.25
2022-07-26T00:13:34.351Z,101084.78
2022-07-26T00:16:02.376Z,101083.88
2022-07-26T00:18:28.774Z,101082.19
2022-07-26T00:20:55.556Z,101081.75
2022-07-26T00:23:22.086Z,101087.09
2022-07-26T00:25:48.506Z,101095.59
2022-07-26T00:28:14.859Z,101087.63
2022-07-26T00:30:43.019Z,101096.69
2022-07-26T00:33:10.746Z,101096.47
2022-07-26T00:35:37.363Z,101092.91
2022-07-26T00:38:03.760Z,101095.59
2022-07-26T00:40:30.290Z,101095.97
2022-07-26T00:42:56.635Z,101091.19
2022-07-26T00:45:22.981Z,101090.16
2022-07-26T00:47:49.336Z,101086.91
2022-07-26T00:50:17.851Z,101091.44
2022-07-26T00:52:44.676Z,101086.72
2022-07-26T00:55:11.664Z,101088.56
2022-07-26T00:57:38.855Z,101093.50
2022-07-26T01:00:06.334Z,101095.34
2022-07-26T01:02:32.748Z,101099.88
2022-07-26T01:04:59.280Z,101093.09
2022-07-26T01:07:27.530Z,101093.44
2022-07-26T01:09:53.914Z,101091.81
2022-07-26T01:12:20.256Z,101088.75
2022-07-26T01:14:46.620Z,101087.53
2022-07-26T01:17:13.805Z,101086.13
2022-07-26T01:19:40.128Z,101083.03
2022-07-26T01:22:12.428Z,101087.41
2022-07-26T01:24:40.648Z,101083.91
2022-07-26T01:27:07.718Z,101078.16
2022-07-26T01:29:34.669Z,101073.63
2022-07-26T01:32:02.689Z,101077.81
2022-07-26T01:34:29.026Z,101070.16
2022-07-26T01:36:55.387Z,101071.00
2022-07-26T01:39:23.280Z,101071.44
2022-07-26T01:41:49.603Z,101077.44
2022-07-26T01:44:15.971Z,101071.69
2022-07-26T01:46:42.330Z,101069.22
2022-07-26T01:49:08.791Z,101079.78
2022-07-26T01:51:35.408Z,101072.09
2022-07-26T01:54:01.763Z,101074.41
2022-07-26T01:56:29.491Z,101064.28
2022-07-26T01:58:55.833Z,101074.03
2022-07-26T02:01:38.149Z,101073.00
2022-07-26T02:04:06.513Z,101073.00
2022-07-26T02:06:34.413Z,101078.38
2022-07-26T02:09:01.070Z,101074.03
2022-07-26T02:11:29.656Z,101078.16
2022-07-26T02:13:55.994Z,101088.09
2022-07-26T02:16:22.447Z,101082.91
2022-07-26T02:18:48.917Z,101092.00
2022-07-26T02:21:15.353Z,101089.69
2022-07-26T02:23:42.169Z,101094.69
2022-07-26T02:26:08.703Z,101097.19
2022-07-26T02:28:36.365Z,101096.16
2022-07-26T02:31:03.096Z,101099.66
2022-07-26T02:33:29.479Z,101099.88
2022-07-26T02:35:55.856Z,101099.88
2022-07-26T02:38:22.314Z,101099.88
2022-07-26T02:40:50.939Z,101103.78
2022-07-26T02:43:17.262Z,101097.56
2022-07-26T02:45:45.028Z,101105.63
2022-07-26T02:48:27.720Z,101110.38
2022-07-26T02:50:54.564Z,101109.16
2022-07-26T02:53:20.913Z,101103.59
2022-07-26T02:55:47.236Z,101110.19
2022-07-26T02:58:13.573Z,101103.78
2022-07-26T03:00:39.919Z,101106.66
2022-07-26T03:03:07.679Z,101106.66
2022-07-26T03:05:34.111Z,101103.53
2022-07-26T03:08:00.465Z,101110.38
2022-07-26T03:10:26.808Z,101112.22
2022-07-26T03:12:53.162Z,101107.44
2022-07-26T03:15:19.553Z,101114.69
2022-07-26T03:17:45.884Z,101117.38
2022-07-26T03:20:13.829Z,101121.09
2022-07-26T03:22:40.186Z,101123.97
2022-07-26T03:25:06.730Z,101123.13
2022-07-26T03:27:33.158Z,101117.75
2022-07-26T03:29:59.493Z,101129.34
2022-07-26T03:32:25.909Z,101130.16
2022-07-26T03:34:52.256Z,101134.53
2022-07-26T03:37:20.022Z,101137.22
2022-07-26T03:39:46.376Z,101142.38
2022-07-26T03:42:12.725Z,101145.06
2022-07-26T03:44:39.051Z,101143.41
2022-07-26T03:47:05.469Z,101145.06
2022-07-26T03:49:31.874Z,101143.41
2022-07-26T03:51:58.205Z,101147.94
2022-07-26T03:54:25.906Z,101152.03
2022-07-26T03:56:52.255Z,101156.59
2022-07-26T03:59:18.588Z,101153.91
2022-07-26T04:01:45.321Z,101153.25
2022-07-26T04:04:12.899Z,101151.41
2022-07-26T04:06:39.920Z,101149.75
2022-07-26T04:09:06.568Z,101158.63
2022-07-26T04:11:35.722Z,101155.31
2022-07-26T04:14:02.394Z,101156.97
2022-07-26T04:16:28.805Z,101157.81
2022-07-26T04:18:55.462Z,101162.34
2022-07-26T04:21:22.023Z,101173.09
2022-07-26T04:23:51.357Z,101165.03
2022-07-26T04:26:18.219Z,101171.03
2022-07-26T04:28:45.900Z,101168.16
2022-07-26T04:31:12.330Z,101164.47
2022-07-26T04:33:38.705Z,101174.19
2022-07-26T04:36:05.625Z,101173.16
2022-07-26T04:38:32.119Z,101175.00
2022-07-26T04:40:58.597Z,101178.13
2022-07-26T04:43:25.331Z,101181.44
2022-07-26T04:45:53.119Z,101183.75
2022-07-26T04:48:19.830Z,101177.56
2022-07-26T04:50:46.178Z,101180.25
2022-07-26T04:53:12.556Z,101177.16
2022-07-26T04:55:38.918Z,101176.97
2022-07-26T04:58:05.560Z,101173.03
2022-07-26T05:00:32.032Z,101175.53
2022-07-26T05:03:00.538Z,101179.69
2022-07-26T05:05:28.049Z,101178.69
2022-07-26T05:07:55.703Z,101178.28
2022-07-26T05:10:23.071Z,101184.91
2022-07-26T05:12:49.428Z,101191.97
2022-07-26T05:15:16.074Z,101184.72
2022-07-26T05:17:43.029Z,101191.56
2022-07-26T05:20:13.552Z,101199.06
2022-07-26T05:22:39.884Z,101193.91
2022-07-26T05:25:06.931Z,101203.25
2022-07-26T05:27:33.433Z,101207.81
2022-07-26T05:29:59.868Z,101199.31
2022-07-26T05:32:26.389Z,101199.97
2022-07-26T05:34:52.731Z,101202.06
2022-07-26T05:37:20.433Z,101202.91
2022-07-26T05:39:46.777Z,101196.06
2022-07-26T05:42:13.105Z,101198.81
2022-07-26T05:44:42.363Z,101205.47
2022-07-26T05:47:09.487Z,101213.97
2022-07-26T05:49:39.635Z,101210.69
2022-07-26T05:52:06.985Z,101220.47
2022-07-26T05:54:34.772Z,101215.34
2022-07-26T05:57:01.120Z,101215.56
2022-07-26T05:59:27.476Z,101216.38
2022-07-26T06:01:53.932Z,101215.81
2022-07-26T06:04:20.415Z,101223.91
2022-07-26T06:06:46.783Z,101227.66
2022-07-26T06:09:13.107Z,101226.00
2022-07-26T06:11:40.804Z,101231.59
2022-07-26T06:14:07.138Z,101235.13
2022-07-26T06:16:33.507Z,101238.00
2022-07-26T06:18:59.894Z,101228.69
2022-07-26T06:21:26.404Z,101230.13
2022-07-26T06:23:52.784Z,101241.53
2022-07-26T06:26:19.217Z,101241.78
2022-07-26T06:28:46.909Z,101246.59
2022-07-26T06:31:13.286Z,101250.94
2022-07-26T06:33:39.649Z,101245.94
2022-07-26T06:36:07.136Z,101244.72
2022-07-26T06:38:35.136Z,101238.13
2022-07-26T06:41:01.481Z,101247.66
2022-07-26T06:43:27.801Z,101247.25
2022-07-26T06:45:55.579Z,101253.25
2022-07-26T06:48:21.988Z,101253.88
2022-07-26T06:50:49.428Z,101254.81
2022-07-26T06:53:15.764Z,101256.50
2022-07-26T06:55:42.089Z,101253.59
2022-07-26T06:58:09.128Z,101263.78
2022-07-26T07:00:35.533Z,101261.88
2022-07-26T07:03:03.278Z,101268.50
2022-07-26T07:05:31.046Z,101265.63
2022-07-26T07:07:57.726Z,101266.03
2022-07-26T07:10:24.739Z,101269.56
2022-07-26T07:12:51.236Z,101268.53
2022-07-26T07:15:17.703Z,101273.72
2022-07-26T07:17:44.168Z,101273.91
2022-07-26T07:20:12.367Z,101274.13
2022-07-26T07:22:38.715Z,101273.91
2022-07-26T07:25:06.077Z,101271.84
2022-07-26T07:27:32.692Z,101280.53
2022-07-26T07:29:59.920Z,101276.41
2022-07-26T07:32:26.475Z,101285.16
2022-07-26T07:34:55.016Z,101284.50
2022-07-26T07:37:22.888Z,101279.72
2022-07-26T07:39:50.764Z,101289.91
2022-07-26T07:42:18.187Z,101283.81
2022-07-26T07:44:44.569Z,101294.66
2022-07-26T07:47:10.983Z,101292.00
2022-07-26T07:49:37.412Z,101297.38
2022-07-26T07:52:03.840Z,101297.56
2022-07-26T07:54:31.542Z,101295.72
2022-07-26T07:56:58.755Z,101297.81
2022-07-26T07:59:25.489Z,101293.03
2022-07-26T08:01:51.882Z,101293.41
2022-07-26T08:04:18.299Z,101295.13
2022-07-26T08:06:50.269Z,101289.06
2022-07-26T08:09:18.248Z,101293.63
2022-07-26T08:11:50.714Z,101293.00
2022-07-26T08:14:17.649Z,101293.00
2022-07-26T08:16:44.289Z,101295.47
2022-07-26T08:19:11.124Z,101293.81
2022-07-26T08:21:37.733Z,101291.88
2022-07-26T08:24:04.165Z,101285.03
2022-07-26T08:26:30.473Z,101290.84
2022-07-26T08:29:00.273Z,101294.47
2022-07-26T08:31:27.048Z,101286.53
2022-07-26T08:33:53.434Z,101282.44
2022-07-26T08:36:19.792Z,101283.97
2022-07-26T08:38:47.572Z,101285.47
2022-07-26T08:41:14.707Z,101298.53
2022-07-26T08:43:52.028Z,101290.34
2022-07-26T08:46:24.811Z,101296.59
2022-07-26T08:48:52.798Z,101292.16
2022-07-26T08:51:20.088Z,101293.84
2022-07-26T08:53:46.905Z,101302.19
2022-07-26T08:56:13.261Z,101300.03
2022-07-26T08:58:39.608Z,101301.34
2022-07-26T09:01:07.201Z,101305.53
2022-07-26T09:03:35.583Z,101310.53
2022-07-26T09:06:10.773Z,101303.88
2022-07-26T09:08:37.129Z,101315.88
2022-07-26T09:11:23.504Z,101308.22
2022-07-26T09:13:50.312Z,101321.41
2022-07-26T09:16:16.709Z,101321.94
2022-07-26T09:18:44.557Z,101331.38
2022-07-26T09:21:25.445Z,101328.78
2022-07-26T09:23:51.796Z,101341.56
2022-07-26T09:26:20.539Z,101339.69
2022-07-26T09:28:52.955Z,101336.28
2022-07-26T09:31:22.654Z,101344.63
2022-07-26T09:33:51.379Z,101355.84
2022-07-26T09:36:18.134Z,101360.59
2022-07-26T09:38:45.345Z,101355.84
2022-07-26T09:41:18.625Z,101346.34
2022-07-26T09:43:46.452Z,101353.47
2022-07-26T09:46:14.588Z,101359.59
2022-07-26T09:49:08.230Z,101363.59
2022-07-26T09:51:39.672Z,101361.28
2022-07-26T09:54:06.042Z,101361.69
2022-07-26T09:56:41.778Z,101382.31
2022-07-26T09:59:08.542Z,101374.66
2022-07-26T10:01:34.948Z,101369.44
2022-07-26T10:04:01.321Z,101380.78
2022-07-26T10:06:30.506Z,101381.84
2022-07-26T10:08:59.200Z,101376.22
2022-07-26T10:11:26.676Z,101384.28
2022-07-26T10:13:53.049Z,101379.69
2022-07-26T10:16:29.200Z,101382.03
2022-07-26T10:18:55.908Z,101378.66
2022-07-26T10:21:23.036Z,101373.75
2022-07-26T10:23:49.967Z,101376.44
2022-07-26T10:26:37.593Z,101378.75
2022-07-26T10:29:20.399Z,101381.56
2022-07-26T10:31:48.519Z,101383.75
2022-07-26T10:34:29.642Z,101380.66
2022-07-26T10:36:57.757Z,101389.94
2022-07-26T10:39:25.111Z,101384.78
2022-07-26T10:41:58.847Z,101395.28
2022-07-26T10:44:26.349Z,101395.97
2022-07-26T10:47:03.892Z,101399.16
2022-07-26T10:49:31.625Z,101400.25
2022-07-26T10:52:11.747Z,101405.88
2022-07-26T10:54:56.736Z,101410.84
2022-07-26T10:57:24.571Z,101412.16
2022-07-26T10:59:56.305Z,101415.50
2022-07-26T11:02:24.322Z,101414.25
2022-07-26T11:04:58.788Z,101417.94
2022-07-26T11:07:25.123Z,101421.25
2022-07-26T11:09:54.694Z,101416.50
2022-07-26T11:12:21.562Z,101416.91
2022-07-26T11:14:49.588Z,101417.97
2022-07-26T11:17:22.860Z,101416.69
2022-07-26T11:19:49.190Z,101421.75
2022-07-26T11:22:15.546Z,101424.66
2022-07-26T11:24:41.899Z,101430.69
2022-07-26T11:27:08.287Z,101432.94
2022-07-26T11:29:38.611Z,101450.81
2022-07-26T11:32:17.840Z,101439.34
2022-07-26T11:34:44.711Z,101442.81
2022-07-26T11:37:11.083Z,101444.69
2022-07-26T11:39:37.440Z,101447.84
2022-07-26T11:42:04.780Z,101446.53
2022-07-26T11:44:31.576Z,101439.00
2022-07-26T11:46:58.101Z,101439.56
2022-07-26T11:49:51.944Z,101441.50
2022-07-26T11:52:14.445Z,101437.25
2022-07-26T11:54:44.942Z,101439.75
2022-07-26T11:57:11.672Z,101442.53
2022-07-26T11:59:38.500Z,101444.59
2022-07-26T12:02:05.608Z,101445.03
2022-07-26T12:04:34.337Z,101447.59
2022-07-26T12:07:01.564Z,101450.41
2022-07-26T12:09:32.224Z,101446.50
2022-07-26T12:11:58.852Z,101450.66
2022-07-26T12:14:25.608Z,101452.19
2022-07-26T12:16:51.952Z,101458.59
2022-07-26T12:19:28.651Z,101455.13
2022-07-26T12:21:58.902Z,101460.31
2022-07-26T12:24:39.008Z,101458.91
2022-07-26T12:27:06.330Z,101454.34
2022-07-26T12:29:32.765Z,101463.47
2022-07-26T12:32:05.726Z,101469.53
2022-07-26T12:34:35.977Z,101482.59
2022-07-26T12:37:07.689Z,101477.78
2022-07-26T12:39:34.111Z,101469.41
2022-07-26T12:42:21.391Z,101468.97
2022-07-26T12:44:47.808Z,101471.78
2022-07-26T12:47:14.164Z,101470.25
2022-07-26T12:49:40.492Z,101469.66
2022-07-26T12:52:08.164Z,101481.56
2022-07-26T12:54:34.510Z,101476.25
2022-07-26T12:57:00.866Z,101472.06
2022-07-26T12:59:27.210Z,101475.63
2022-07-26T13:01:53.647Z,101475.28
2022-07-26T13:04:20.135Z,101468.13
2022-07-26T13:06:46.479Z,101469.31
2022-07-26T13:09:16.879Z,101465.56
2022-07-26T13:11:43.580Z,101473.06
2022-07-26T13:14:10.144Z,101471.34
2022-07-26T13:16:39.797Z,101467.09
2022-07-26T13:19:06.192Z,101470.75
2022-07-26T13:21:33.211Z,101465.75
2022-07-26T13:24:00.057Z,101474.34
2022-07-26T13:26:28.149Z,101478.13
2022-07-26T13:28:54.629Z,101482.03
2022-07-26T13:31:21.247Z,101477.47
2022-07-26T13:33:47.638Z,101480.56
2022-07-26T13:36:14.006Z,101481.56
2022-07-26T13:38:40.374Z,101472.59
2022-07-26T13:41:06.723Z,101482.78
2022-07-26T13:43:34.545Z,101494.22
2022-07-26T13:46:01.021Z,101489.50
2022-07-26T13:48:27.732Z,101498.13
2022-07-26T13:50:54.234Z,101495.81
2022-07-26T13:53:20.781Z,101505.06
2022-07-26T13:55:47.156Z,101506.97
2022-07-26T13:58:13.489Z,101507.22
2022-07-26T14:00:41.244Z,101499.44
2022-07-26T14:03:08.217Z,101507.31
2022-07-26T14:05:34.637Z,101503.59
2022-07-26T14:08:00.972Z,101518.66
2022-07-26T14:10:27.315Z,101510.91
2022-07-26T14:12:53.666Z,101511.66
2022-07-26T14:15:23.168Z,101506.31
2022-07-26T14:17:51.944Z,101507.41
2022-07-26T14:20:18.418Z,101516.31
2022-07-26T14:22:44.813Z,101511.06
2022-07-26T14:25:11.479Z,101515.94
2022-07-26T14:27:37.896Z,101515.03
2022-07-26T14:30:04.576Z,101521.09
2022-07-26T14:32:30.984Z,101526.03
2022-07-26T14:34:58.670Z,101531.03
2022-07-26T14:37:43.649Z,101528.94
2022-07-26T14:40:12.347Z,101525.16
2022-07-26T14:42:38.800Z,101533.00
2022-07-26T14:45:05.819Z,101529.41
2022-07-26T14:47:32.205Z,101527.00
2022-07-26T14:50:05.895Z,101534.38
2022-07-26T14:52:33.173Z,101528.00
2022-07-26T14:54:59.487Z,101536.06
2022-07-26T14:57:25.833Z,101543.25
2022-07-26T14:59:52.153Z,101540.91
2022-07-26T15:02:18.588Z,101535.00
2022-07-26T15:04:44.955Z,101538.69
2022-07-26T15:07:12.645Z,101531.91
2022-07-26T15:09:39.048Z,101529.63
2022-07-26T15:12:05.580Z,101527.03
2022-07-26T15:14:31.893Z,101522.03
2022-07-26T15:16:58.341Z,101525.38
2022-07-26T15:19:25.854Z,101520.34
2022-07-26T15:21:53.080Z,101524.78
2022-07-26T15:24:20.920Z,101518.28
2022-07-26T15:26:49.893Z,101504.81
2022-07-26T15:29:16.220Z,101515.91
2022-07-26T15:31:42.606Z,101518.09
2022-07-26T15:34:09.579Z,101516.13
2022-07-26T15:36:36.393Z,101514.34
2022-07-26T15:39:16.197Z,101515.38
2022-07-26T15:41:45.339Z,101516.81
2022-07-26T15:44:12.493Z,101521.59
2022-07-26T15:46:39.732Z,101524.72
2022-07-26T15:49:06.651Z,101528.25
2022-07-26T15:51:33.175Z,101532.63
2022-07-26T15:53:59.589Z,101536.41
2022-07-26T15:56:25.962Z,101532.75
2022-07-26T15:58:53.640Z,101527.81
2022-07-26T16:01:21.202Z,101525.34
2022-07-26T16:03:47.562Z,101530.94
2022-07-26T16:06:13.906Z,101522.13
2022-07-26T16:09:05.574Z,101518.00
2022-07-26T16:11:27.001Z,101515.56
2022-07-26T16:14:01.338Z,101514.34
2022-07-26T16:16:28.562Z,101513.94
2022-07-26T16:18:54.949Z,101516.50
2022-07-26T16:21:21.447Z,101521.28
2022-07-26T16:23:48.022Z,101518.22
2022-07-26T16:26:14.352Z,101517.84
2022-07-26T16:28:40.695Z,101515.75
2022-07-26T16:31:08.428Z,101511.44
2022-07-26T16:33:34.752Z,101512.13
2022-07-26T16:36:05.983Z,101508.75
2022-07-26T16:38:33.633Z,101511.19
2022-07-26T16:41:00.039Z,101509.81
2022-07-26T16:43:26.354Z,101513.88
2022-07-26T16:45:52.691Z,101513.28
2022-07-26T16:48:20.373Z,101513.03
2022-07-26T16:50:46.727Z,101521.69
2022-07-26T16:53:13.449Z,101527.47
2022-07-26T16:55:39.870Z,101521.81
2022-07-26T16:58:06.195Z,101524.94
2022-07-26T17:00:32.578Z,101534.03
2022-07-26T17:02:58.953Z,101529.66
2022-07-26T17:05:26.658Z,101527.72
2022-07-26T17:07:52.980Z,101522.88
2022-07-26T17:10:19.310Z,101532.56
2022-07-26T17:12:45.689Z,101526.06
2022-07-26T17:15:13.622Z,101522.75
2022-07-26T17:17:39.959Z,101520.84
2022-07-26T17:20:07.109Z,101519.16
2022-07-26T17:22:34.803Z,101521.03
2022-07-26T17:25:01.122Z,101522.88
2022-07-26T17:27:27.444Z,101526.59
2022-07-26T17:29:53.843Z,101530.28
2022-07-26T17:32:20.194Z,101530.75
2022-07-26T17:34:46.558Z,101530.63
2022-07-26T17:37:12.902Z,101536.09
2022-07-26T17:39:52.792Z,101541.97
2022-07-26T17:42:20.135Z,101540.44
2022-07-26T17:44:46.459Z,101538.31
2022-07-26T17:47:18.211Z,101540.31
2022-07-26T17:49:57.154Z,101534.34
2022-07-26T17:52:25.303Z,101540.88
2022-07-26T17:54:52.988Z,101532.44
2022-07-26T17:57:19.376Z,101532.81
2022-07-26T17:59:45.783Z,101536.97
2022-07-26T18:02:12.237Z,101535.50
2022-07-26T18:04:38.634Z,101529.72
2022-07-26T18:07:05.004Z,101528.38
2022-07-26T18:09:31.324Z,101533.38
2022-07-26T18:11:59.043Z,101537.09
2022-07-26T18:14:25.392Z,101531.34
2022-07-26T18:16:53.914Z,101535.69
2022-07-26T18:19:21.421Z,101540.81
2022-07-26T18:21:47.783Z,101539.00
2022-07-26T18:24:17.243Z,101548.38
2022-07-26T18:26:44.088Z,101552.22
2022-07-26T18:29:12.066Z,101543.00
2022-07-26T18:31:38.670Z,101555.66
2022-07-26T18:34:06.842Z,101547.22
2022-07-26T18:36:33.361Z,101551.72
2022-07-26T18:38:59.697Z,101551.72
2022-07-26T18:41:26.073Z,101555.78
2022-07-26T18:43:52.413Z,101560.38
2022-07-26T18:46:20.329Z,101550.44
2022-07-26T18:48:46.786Z,101556.38
2022-07-26T18:51:13.212Z,101559.53
2022-07-26T18:53:39.725Z,101554.66
2022-07-26T18:56:07.543Z,101554.50
2022-07-26T18:58:33.926Z,101555.38
2022-07-26T19:01:00.264Z,101556.47
2022-07-26T19:03:27.969Z,101554.25
2022-07-26T19:05:54.414Z,101552.81
2022-07-26T19:08:20.773Z,101558.81
2022-07-26T19:10:47.120Z,101562.03
2022-07-26T19:13:13.452Z,101569.69
2022-07-26T19:15:39.851Z,101559.91
2022-07-26T19:18:09.507Z,101563.50
2022-07-26T19:20:37.361Z,101572.59
2022-07-26T19:23:03.697Z,101573.06
2022-07-26T19:25:30.052Z,101578.06
2022-07-26T19:27:56.361Z,101580.13
2022-07-26T19:30:22.697Z,101582.25
2022-07-26T19:32:49.039Z,101577.53
2022-07-26T19:35:15.511Z,101585.50
2022-07-26T19:37:43.957Z,101598.03
2022-07-26T19:40:10.712Z,101593.03
2022-07-26T19:42:37.069Z,101591.63
2022-07-26T19:45:03.623Z,101603.63
2022-07-26T19:47:30.255Z,101604.88
2022-07-26T19:49:56.966Z,101613.78
2022-07-26T19:52:23.352Z,101618.69
2022-07-26T19:54:51.767Z,101620.13
2022-07-26T19:57:18.371Z,101628.81
2022-07-26T19:59:44.943Z,101629.81
2022-07-26T20:02:11.426Z,101631.56
2022-07-26T20:04:40.707Z,101630.47
2022-07-26T20:07:09.261Z,101637.09
2022-07-26T20:09:35.790Z,101638.59
2022-07-26T20:12:03.858Z,101642.72
2022-07-26T20:14:30.193Z,101645.84
2022-07-26T20:16:56.722Z,101647.84
2022-07-26T20:19:23.414Z,101645.41
2022-07-26T20:21:49.739Z,101641.56
2022-07-26T20:24:16.085Z,101640.31
2022-07-26T20:26:42.428Z,101648.09
2022-07-26T20:29:10.421Z,101646.47
2022-07-26T20:31:36.910Z,101644.50
2022-07-26T20:34:03.256Z,101645.16
2022-07-26T20:36:29.584Z,101650.88
2022-07-26T20:38:55.930Z,101645.91
2022-07-26T20:41:22.293Z,101647.31
2022-07-26T20:43:48.695Z,101650.00
2022-07-26T20:46:16.465Z,101657.88
2022-07-26T20:48:42.925Z,101653.88
2022-07-26T20:51:13.544Z,101661.94
2022-07-26T20:53:40.554Z,101660.56
2022-07-26T20:56:07.014Z,101669.13
2022-07-26T20:58:33.363Z,101672.94
2022-07-26T21:00:59.752Z,101673.81
2022-07-26T21:03:27.637Z,101677.84
2022-07-26T21:05:53.952Z,101688.06
2022-07-26T21:08:20.321Z,101690.88
2022-07-26T21:10:46.755Z,101685.97
2022-07-26T21:13:13.341Z,101684.63
2022-07-26T21:15:39.694Z,101685.47
2022-07-26T21:18:06.335Z,101683.81
2022-07-26T21:20:35.203Z,101686.31
2022-07-26T21:23:15.847Z,101684.13
2022-07-26T21:25:42.963Z,101695.19
2022-07-26T21:28:09.317Z,101692.03
2022-07-26T21:30:35.633Z,101692.22
2022-07-26T21:33:01.986Z,101696.38
2022-07-26T21:35:28.389Z,101701.25
2022-07-26T21:37:56.106Z,101691.66
2022-07-26T21:40:22.455Z,101694.34
2022-07-26T21:42:48.788Z,101692.56
2022-07-26T21:45:15.162Z,101698.06
2022-07-26T21:47:41.482Z,101702.09
2022-07-26T21:50:08.640Z,101701.81
2022-07-26T21:52:34.996Z,101702.50
2022-07-26T21:55:02.812Z,101709.50
2022-07-26T21:57:29.151Z,101703.84
2022-07-26T21:59:55.475Z,101703.16
2022-07-26T22:02:22.184Z,101708.06
2022-07-26T22:04:48.560Z,101709.59
2022-07-26T22:07:14.896Z,101699.88
2022-07-26T22:09:41.235Z,101703.94
2022-07-26T22:12:09.589Z,101701.91
2022-07-26T22:14:35.933Z,101705.63
2022-07-26T22:17:02.313Z,101705.97
2022-07-26T22:19:28.696Z,101702.78
2022-07-26T22:21:55.046Z,101709.97
2022-07-26T22:24:21.401Z,101712.16
2022-07-26T22:26:47.806Z,101716.03
2022-07-26T22:29:15.533Z,101703.31
2022-07-26T22:31:41.934Z,101708.84
2022-07-26T22:34:08.348Z,101710.50
2022-07-26T22:36:34.682Z,101713.00
2022-07-26T22:39:01.050Z,101706.00
2022-07-26T22:41:27.391Z,101708.16
2022-07-26T22:43:58.359Z,101703.97
2022-07-26T22:46:29.227Z,101707.47
2022-07-26T22:48:56.024Z,101707.97
2022-07-26T22:51:22.416Z,101706.13
2022-07-26T22:53:48.779Z,101705.28
2022-07-26T22:56:19.585Z,101702.63
2022-07-26T22:58:46.608Z,101706.34
2022-07-26T23:01:13.021Z,101713.53
2022-07-26T23:03:40.922Z,101713.53
2022-07-26T23:06:10.335Z,101705.50
2022-07-26T23:08:49.456Z,101710.66
2022-07-26T23:11:15.811Z,101709.53
2022-07-26T23:13:42.136Z,101708.69
2022-07-26T23:16:08.537Z,101712.34
2022-07-26T23:18:34.920Z,101712.16
2022-07-26T23:21:03.840Z,101708.19
2022-07-26T23:23:30.580Z,101717.66
2022-07-26T23:25:57.518Z,101710.81
2022-07-26T23:28:35.634Z,101713.16
2022-07-26T23:31:05.052Z,101714.84
2022-07-26T23:33:51.927Z,101716.00
2022-07-26T23:36:19.211Z,101715.47
2022-07-26T23:38:45.553Z,101712.78
2022-07-26T23:41:11.867Z,101714.97
2022-07-26T23:43:38.221Z,101722.97
2022-07-26T23:46:04.534Z,101724.97
2022-07-26T23:48:30.948Z,101721.81
2022-07-26T23:50:57.362Z,101720.78
2022-07-26T23:53:26.739Z,101721.59
2022-07-26T23:55:53.593Z,101719.09
2022-07-26T23:58:19.916Z,101726.44
